createdAt,value
2022-11-28T00:01:42.942Z,6.63
2022-11-28T00:04:11.392Z,6.53
2022-11-28T00:06:45.286Z,6.70
2022-11-28T00:09:14.766Z,7.65
2022-11-28T00:11:44.145Z,6.72
2022-11-28T00:14:12.903Z,6.60
2022-11-28T00:16:42.668Z,6.22
2022-11-28T00:19:12.398Z,7.43
2022-11-28T00:21:40.807Z,6.13
2022-11-28T00:24:09.752Z,7.47
2022-11-28T00:26:40.371Z,7.10
2022-11-28T00:29:09.654Z,8.00
2022-11-28T00:31:42.509Z,6.63
2022-11-28T00:34:13.323Z,6.90
2022-11-28T00:36:41.572Z,7.30
2022-11-28T00:39:09.646Z,7.70
2022-11-28T00:41:37.990Z,7.10
2022-11-28T00:44:06.169Z,7.97
2022-11-28T00:46:34.927Z,7.60
2022-11-28T00:49:06.168Z,8.05
2022-11-28T00:51:36.572Z,7.95
2022-11-28T00:54:07.042Z,7.65
2022-11-28T00:56:38.108Z,8.13
2022-11-28T00:59:07.183Z,8.30
2022-11-28T01:01:37.039Z,7.85
2022-11-28T01:04:08.533Z,8.60
2022-11-28T01:06:40.205Z,7.72
2022-11-28T01:09:11.129Z,8.00
2022-11-28T01:11:39.854Z,10.93
2022-11-28T01:14:09.089Z,11.30
2022-11-28T01:16:37.291Z,7.43
2022-11-28T01:19:05.579Z,9.13
2022-11-28T01:21:33.963Z,8.13
2022-11-28T01:24:03.417Z,8.20
2022-11-28T01:26:32.005Z,7.72
2022-11-28T01:29:01.133Z,8.48
2022-11-28T01:31:31.165Z,8.30
2022-11-28T01:33:59.882Z,8.30
2022-11-28T01:36:28.364Z,7.93
2022-11-28T01:38:56.539Z,8.05
2022-11-28T01:41:27.579Z,7.45
2022-11-28T01:44:08.312Z,8.38
2022-11-28T01:46:37.511Z,7.93
2022-11-28T01:49:12.652Z,8.60
2022-11-28T01:51:44.244Z,7.75
2022-11-28T01:54:13.316Z,7.95
2022-11-28T01:56:46.933Z,7.50
2022-11-28T01:59:17.022Z,7.28
2022-11-28T02:01:46.239Z,7.13
2022-11-28T02:04:15.155Z,8.73
2022-11-28T02:06:43.802Z,7.72
2022-11-28T02:09:13.979Z,8.80
2022-11-28T02:12:12.427Z,7.88
2022-11-28T02:15:00.955Z,7.63
2022-11-28T02:17:44.592Z,9.80
2022-11-28T02:20:56.935Z,10.70
2022-11-28T02:23:30.086Z,10.70
2022-11-28T02:26:16.331Z,11.48
2022-11-28T02:29:26.552Z,8.40
2022-11-28T02:32:15.807Z,7.28
2022-11-28T02:34:52.729Z,8.07
2022-11-28T02:37:26.755Z,7.93
2022-11-28T02:40:06.737Z,8.30
2022-11-28T02:42:43.114Z,8.00
2022-11-28T02:45:14.655Z,8.52
2022-11-28T02:47:47.769Z,8.05
2022-11-28T02:50:21.431Z,7.70
2022-11-28T02:52:52.601Z,7.88
2022-11-28T02:55:21.377Z,8.05
2022-11-28T02:57:51.837Z,7.22
2022-11-28T03:00:29.782Z,8.05
2022-11-28T03:03:17.902Z,8.00
2022-11-28T03:05:53.227Z,8.88
2022-11-28T03:08:35.588Z,8.13
2022-11-28T03:11:09.935Z,7.45
2022-11-28T03:13:42.636Z,8.13
2022-11-28T03:16:24.118Z,9.73
2022-11-28T03:19:02.088Z,9.18
2022-11-28T03:21:39.064Z,9.88
2022-11-28T03:24:13.592Z,8.82
2022-11-28T03:26:48.222Z,9.48
2022-11-28T03:29:22.543Z,10.88
2022-11-28T03:31:54.953Z,9.73
2022-11-28T03:34:28.144Z,10.25
2022-11-28T03:37:02.431Z,13.15
2022-11-28T03:39:36.792Z,9.50
2022-11-28T03:42:10.031Z,10.18
2022-11-28T03:44:44.353Z,10.40
2022-11-28T03:47:12.697Z,9.20
2022-11-28T03:49:45.830Z,9.90
2022-11-28T03:52:19.548Z,9.25
2022-11-28T03:54:52.379Z,9.60
2022-11-28T03:57:25.712Z,9.38
2022-11-28T03:59:55.760Z,9.77
2022-11-28T04:02:31.126Z,9.48
2022-11-28T04:05:04.202Z,8.10
2022-11-28T04:07:39.781Z,8.75
2022-11-28T04:10:14.426Z,9.57
2022-11-28T04:12:53.836Z,9.00
2022-11-28T04:15:27.683Z,9.20
2022-11-28T04:18:00.698Z,9.63
2022-11-28T04:20:36.601Z,9.85
2022-11-28T04:23:09.246Z,9.40
2022-11-28T04:25:42.450Z,9.45
2022-11-28T04:28:15.839Z,10.13
2022-11-28T04:30:47.161Z,10.27
2022-11-28T04:33:17.072Z,9.90
2022-11-28T04:35:51.361Z,9.48
2022-11-28T04:38:20.277Z,9.30
2022-11-28T04:40:52.797Z,10.05
2022-11-28T04:43:25.416Z,8.95
2022-11-28T04:45:58.003Z,8.75
2022-11-28T04:48:29.939Z,9.95
2022-11-28T04:51:16.104Z,8.55
2022-11-28T04:53:50.696Z,9.95
2022-11-28T04:56:22.622Z,8.82
2022-11-28T04:58:51.787Z,8.30
2022-11-28T05:01:22.829Z,9.77
2022-11-28T05:03:51.281Z,9.93
2022-11-28T05:06:28.716Z,9.50
2022-11-28T05:08:56.860Z,9.35
2022-11-28T05:11:25.368Z,9.23
2022-11-28T05:13:53.752Z,9.38
2022-11-28T05:16:23.732Z,9.70
2022-11-28T05:18:52.020Z,9.13
2022-11-28T05:21:20.286Z,9.98
2022-11-28T05:23:49.732Z,9.38
2022-11-28T05:26:19.394Z,9.38
2022-11-28T05:28:49.646Z,7.95
2022-11-28T05:31:19.172Z,9.73
2022-11-28T05:33:47.378Z,9.90
2022-11-28T05:36:16.378Z,9.07
2022-11-28T05:38:45.064Z,10.48
2022-11-28T05:41:21.661Z,9.05
2022-11-28T05:43:49.709Z,9.70
2022-11-28T05:46:18.070Z,9.77
2022-11-28T05:48:46.168Z,8.95
2022-11-28T05:51:14.462Z,9.68
2022-11-28T05:53:42.651Z,10.88
2022-11-28T05:56:12.168Z,9.90
2022-11-28T05:58:42.167Z,9.80
2022-11-28T06:01:12.020Z,8.65
2022-11-28T06:03:40.086Z,9.48
2022-11-28T06:06:12.227Z,9.65
2022-11-28T06:08:40.326Z,10.05
2022-11-28T06:11:08.662Z,10.20
2022-11-28T06:13:37.216Z,9.75
2022-11-28T06:16:10.018Z,10.10
2022-11-28T06:18:38.361Z,11.90
2022-11-28T06:21:08.794Z,10.75
2022-11-28T06:23:38.780Z,12.88
2022-11-28T06:26:07.902Z,9.90
2022-11-28T06:28:36.482Z,9.45
2022-11-28T06:31:05.116Z,10.73
2022-11-28T06:33:34.475Z,10.25
2022-11-28T06:36:04.047Z,9.88
2022-11-28T06:38:32.795Z,9.90
2022-11-28T06:41:02.770Z,10.13
2022-11-28T06:43:31.594Z,10.23
2022-11-28T06:46:00.080Z,10.93
2022-11-28T06:48:28.519Z,10.30
2022-11-28T06:51:03.635Z,9.95
2022-11-28T06:53:31.876Z,10.13
2022-11-28T06:56:04.891Z,11.07
2022-11-28T06:58:33.157Z,10.48
2022-11-28T07:01:07.172Z,9.73
2022-11-28T07:03:35.239Z,9.75
2022-11-28T07:06:05.439Z,10.25
2022-11-28T07:08:34.333Z,13.27
2022-11-28T07:11:09.691Z,13.95
2022-11-28T07:13:37.814Z,13.55
2022-11-28T07:16:06.352Z,14.52
2022-11-28T07:18:34.717Z,14.68
2022-11-28T07:21:04.221Z,14.75
2022-11-28T07:23:32.407Z,14.13
2022-11-28T07:26:01.422Z,13.82
2022-11-28T07:28:30.563Z,13.60
2022-11-28T07:31:03.993Z,13.85
2022-11-28T07:33:32.488Z,13.55
2022-11-28T07:36:02.115Z,14.57
2022-11-28T07:38:31.680Z,13.88
2022-11-28T07:41:04.491Z,14.27
2022-11-28T07:43:32.644Z,14.00
2022-11-28T07:46:01.728Z,14.48
2022-11-28T07:48:29.929Z,14.23
2022-11-28T07:50:57.978Z,14.00
2022-11-28T07:53:26.054Z,13.55
2022-11-28T07:55:55.416Z,13.60
2022-11-28T07:58:23.474Z,13.80
2022-11-28T08:00:51.589Z,14.25
2022-11-28T08:03:19.658Z,14.02
2022-11-28T08:05:49.516Z,13.70
2022-11-28T08:08:18.281Z,13.00
2022-11-28T08:10:47.119Z,13.68
2022-11-28T08:13:16.500Z,13.80
2022-11-28T08:15:44.862Z,12.40
2022-11-28T08:18:12.992Z,10.98
2022-11-28T08:20:41.046Z,10.43
2022-11-28T08:23:09.197Z,11.35
2022-11-28T08:25:37.195Z,10.85
2022-11-28T08:28:05.480Z,10.90
2022-11-28T08:30:34.951Z,10.70
2022-11-28T08:33:03.071Z,9.95
2022-11-28T08:35:31.064Z,9.60
2022-11-28T08:38:02.070Z,8.75
2022-11-28T08:40:30.254Z,9.48
2022-11-28T08:42:59.606Z,9.90
2022-11-28T08:45:27.647Z,9.35
2022-11-28T08:47:57.024Z,8.90
2022-11-28T08:50:25.047Z,10.13
2022-11-28T08:52:53.094Z,9.23
2022-11-28T08:55:25.209Z,9.20
2022-11-28T08:57:59.915Z,9.57
2022-11-28T09:00:27.964Z,9.60
2022-11-28T09:02:57.324Z,9.65
2022-11-28T09:05:25.344Z,10.18
2022-11-28T09:07:55.960Z,9.20
2022-11-28T09:10:25.066Z,8.93
2022-11-28T09:12:53.443Z,9.13
2022-11-28T09:15:21.545Z,8.85
2022-11-28T09:17:49.557Z,9.25
2022-11-28T09:20:20.393Z,9.38
2022-11-28T09:22:48.498Z,8.93
2022-11-28T09:25:16.850Z,8.63
2022-11-28T09:27:44.904Z,9.15
2022-11-28T09:30:13.606Z,9.95
2022-11-28T09:32:41.694Z,7.90
2022-11-28T09:35:10.314Z,9.32
2022-11-28T09:37:39.654Z,9.35
2022-11-28T09:40:15.922Z,8.60
2022-11-28T09:42:44.890Z,8.43
2022-11-28T09:45:16.571Z,8.50
2022-11-28T09:47:47.932Z,8.75
2022-11-28T09:50:20.812Z,11.90
2022-11-28T09:52:58.817Z,8.77
2022-11-28T09:55:35.254Z,12.40
2022-11-28T09:58:07.640Z,12.38
2022-11-28T10:00:39.739Z,11.10
2022-11-28T10:03:33.749Z,16.73
2022-11-28T10:06:12.575Z,9.63
2022-11-28T10:08:56.962Z,9.82
2022-11-28T10:11:40.121Z,18.25
2022-11-28T10:14:37.752Z,11.07
2022-11-28T10:17:18.878Z,10.02
2022-11-28T10:19:55.117Z,9.95
2022-11-28T10:22:34.898Z,9.13
2022-11-28T10:25:13.511Z,9.40
2022-11-28T10:27:42.399Z,9.63
2022-11-28T10:30:19.563Z,8.50
2022-11-28T10:32:56.526Z,8.85
2022-11-28T10:35:29.316Z,9.50
2022-11-28T10:37:57.650Z,9.02
2022-11-28T10:40:37.122Z,9.63
2022-11-28T10:43:11.802Z,10.77
2022-11-28T10:45:52.751Z,9.40
2022-11-28T10:48:39.529Z,9.68
2022-11-28T10:51:20.227Z,9.85
2022-11-28T10:53:55.479Z,10.68
2022-11-28T10:56:33.861Z,10.63
2022-11-28T10:59:08.776Z,10.93
2022-11-28T11:01:40.448Z,11.10
2022-11-28T11:04:17.985Z,11.93
2022-11-28T11:07:08.809Z,11.23
2022-11-28T11:09:39.388Z,11.30
2022-11-28T11:12:20.115Z,10.70
2022-11-28T11:14:48.439Z,11.77
2022-11-28T11:17:34.217Z,12.00
2022-11-28T11:20:19.866Z,10.63
2022-11-28T11:22:55.393Z,10.60
2022-11-28T11:25:25.290Z,11.90
2022-11-28T11:27:56.807Z,10.82
2022-11-28T11:30:30.883Z,11.73
2022-11-28T11:33:01.184Z,12.23
2022-11-28T11:35:30.920Z,11.70
2022-11-28T11:38:18.610Z,12.93
2022-11-28T11:40:47.192Z,12.73
2022-11-28T11:43:28.678Z,15.15
2022-11-28T11:46:08.291Z,12.27
2022-11-28T11:48:38.204Z,12.43
2022-11-28T11:51:07.068Z,11.30
2022-11-28T11:53:35.204Z,12.82
2022-11-28T11:56:05.159Z,12.52
2022-11-28T11:58:42.100Z,13.13
2022-11-28T12:01:13.052Z,12.95
2022-11-28T12:03:48.797Z,11.70
2022-11-28T12:06:23.042Z,11.90
2022-11-28T12:08:53.224Z,11.10
2022-11-28T12:11:25.937Z,11.65
2022-11-28T12:13:56.050Z,11.25
2022-11-28T12:16:43.353Z,11.15
2022-11-28T12:19:23.597Z,10.65
2022-11-28T12:22:06.364Z,10.88
2022-11-28T12:24:42.486Z,12.48
2022-11-28T12:27:19.855Z,12.45
2022-11-28T12:30:04.166Z,11.68
2022-11-28T12:32:43.619Z,11.70
2022-11-28T12:35:26.332Z,11.82
2022-11-28T12:38:13.035Z,10.85
2022-11-28T12:40:53.215Z,11.95
2022-11-28T12:43:32.995Z,11.48
2022-11-28T12:46:08.661Z,11.45
2022-11-28T12:48:53.579Z,11.43
2022-11-28T12:51:33.913Z,12.73
2022-11-28T12:54:25.826Z,20.67
2022-11-28T12:57:00.247Z,13.77
2022-11-28T12:59:33.681Z,13.68
2022-11-28T13:02:19.362Z,13.90
2022-11-28T13:05:17.824Z,16.55
2022-11-28T13:07:58.720Z,13.57
2022-11-28T13:10:34.427Z,14.10
2022-11-28T13:13:08.871Z,14.07
2022-11-28T13:15:47.389Z,13.02
2022-11-28T13:18:29.137Z,12.82
2022-11-28T13:21:02.369Z,14.38
2022-11-28T13:23:37.111Z,13.85
2022-11-28T13:26:11.156Z,13.52
2022-11-28T13:28:46.916Z,13.23
2022-11-28T13:31:22.300Z,12.35
2022-11-28T13:33:54.412Z,13.15
2022-11-28T13:39:31.413Z,14.05
2022-11-28T13:43:11.865Z,14.65
2022-11-28T13:45:07.152Z,14.45
2022-11-28T13:47:37.006Z,15.20
2022-11-28T13:50:36.121Z,14.38
2022-11-28T13:53:21.345Z,14.07
2022-11-28T13:55:50.718Z,13.35
2022-11-28T13:58:25.922Z,12.77
2022-11-28T14:01:12.314Z,13.63
2022-11-28T14:03:47.737Z,14.65
2022-11-28T14:06:20.671Z,13.65
2022-11-28T14:08:50.710Z,14.02
2022-11-28T14:11:46.345Z,13.82
2022-11-28T14:14:34.554Z,22.50
2022-11-28T14:17:13.320Z,24.02
2022-11-28T14:20:02.114Z,14.80
2022-11-28T14:22:45.448Z,13.40
2022-11-28T14:25:21.157Z,13.45
2022-11-28T14:27:54.568Z,13.50
2022-11-28T14:30:28.190Z,12.45
2022-11-28T14:32:59.392Z,13.70
2022-11-28T14:36:15.875Z,14.75
2022-11-28T14:38:48.083Z,14.93
2022-11-28T14:41:16.862Z,14.63
2022-11-28T14:43:46.538Z,13.60
2022-11-28T14:46:27.828Z,13.18
2022-11-28T14:49:21.103Z,14.45
2022-11-28T14:52:39.185Z,14.48
2022-11-28T14:55:22.221Z,15.38
2022-11-28T14:57:57.254Z,15.52
2022-11-28T15:00:27.704Z,16.10
2022-11-28T15:03:15.565Z,15.10
2022-11-28T15:05:49.081Z,14.90
2022-11-28T15:08:45.406Z,14.57
2022-11-28T15:11:42.464Z,12.95
2022-11-28T15:14:21.662Z,14.25
2022-11-28T15:16:55.963Z,13.90
2022-11-28T15:19:28.135Z,12.75
2022-11-28T15:21:57.128Z,12.57
2022-11-28T15:24:30.757Z,13.63
2022-11-28T15:27:23.803Z,14.50
2022-11-28T15:29:57.722Z,13.57
2022-11-28T15:32:27.654Z,15.23
2022-11-28T15:35:00.411Z,22.38
2022-11-28T15:37:32.792Z,19.02
2022-11-28T15:40:04.290Z,16.33
2022-11-28T15:42:37.699Z,17.17
2022-11-28T15:45:13.589Z,15.02
2022-11-28T15:47:41.835Z,14.90
2022-11-28T15:50:18.170Z,15.55
2022-11-28T15:52:55.510Z,14.35
2022-11-28T15:55:26.043Z,16.08
2022-11-28T15:58:18.981Z,16.13
2022-11-28T16:00:54.261Z,15.82
2022-11-28T16:03:27.204Z,13.48
2022-11-28T16:05:57.193Z,15.48
2022-11-28T16:08:31.279Z,14.43
2022-11-28T16:11:00.444Z,15.43
2022-11-28T16:13:32.367Z,15.75
2022-11-28T16:16:04.025Z,15.50
2022-11-28T16:18:32.602Z,14.75
2022-11-28T16:21:02.321Z,13.75
2022-11-28T16:23:33.833Z,13.48
2022-11-28T16:26:03.952Z,13.02
2022-11-28T16:28:41.081Z,14.23
2022-11-28T16:31:13.759Z,16.75
2022-11-28T16:33:44.800Z,21.30
2022-11-28T16:36:21.386Z,17.13
2022-11-28T16:38:51.561Z,17.25
2022-11-28T16:41:26.504Z,15.60
2022-11-28T16:44:00.547Z,14.98
2022-11-28T16:46:33.497Z,15.55
2022-11-28T16:49:02.388Z,16.17
2022-11-28T16:51:37.100Z,18.05
2022-11-28T16:54:30.092Z,17.40
2022-11-28T16:57:09.700Z,15.65
2022-11-28T16:59:39.179Z,13.63
2022-11-28T17:02:15.458Z,13.65
2022-11-28T17:04:44.243Z,12.50
2022-11-28T17:07:14.560Z,12.10
2022-11-28T17:09:43.124Z,32.42
2022-11-28T17:12:19.655Z,17.05
2022-11-28T17:14:49.066Z,19.77
2022-11-28T17:17:18.527Z,19.23
2022-11-28T17:19:47.369Z,26.13
2022-11-28T17:22:18.648Z,19.30
2022-11-28T17:24:47.339Z,20.40
2022-11-28T17:27:16.319Z,25.83
2022-11-28T17:29:44.824Z,27.52
2022-11-28T17:32:15.603Z,24.90
2022-11-28T17:34:45.962Z,24.10
2022-11-28T17:37:14.667Z,20.67
2022-11-28T17:40:03.394Z,20.75
2022-11-28T17:42:31.606Z,20.13
2022-11-28T17:44:59.685Z,17.83
2022-11-28T17:47:29.168Z,19.88
2022-11-28T17:49:57.518Z,19.90
2022-11-28T17:52:30.060Z,15.57
2022-11-28T17:55:06.848Z,15.68
2022-11-28T17:57:36.195Z,15.13
2022-11-28T18:00:06.412Z,15.95
2022-11-28T18:02:43.443Z,15.55
2022-11-28T18:05:11.779Z,17.15
2022-11-28T18:07:41.468Z,17.42
2022-11-28T18:10:12.695Z,15.75
2022-11-28T18:12:40.790Z,16.42
2022-11-28T18:15:10.417Z,18.15
2022-11-28T18:17:39.127Z,19.15
2022-11-28T18:20:11.149Z,18.73
2022-11-28T18:22:39.393Z,22.00
2022-11-28T18:25:09.791Z,18.90
2022-11-28T18:27:38.671Z,18.55
2022-11-28T18:30:08.417Z,17.00
2022-11-28T18:32:36.854Z,17.02
2022-11-28T18:35:05.395Z,17.02
2022-11-28T18:37:34.900Z,16.10
2022-11-28T18:40:08.882Z,15.85
2022-11-28T18:42:37.562Z,15.98
2022-11-28T18:45:06.269Z,17.25
2022-11-28T18:47:36.124Z,17.00
2022-11-28T18:50:04.359Z,15.85
2022-11-28T18:52:33.731Z,20.10
2022-11-28T18:55:02.006Z,17.15
2022-11-28T18:57:32.662Z,18.30
2022-11-28T19:00:01.682Z,17.83
2022-11-28T19:02:30.643Z,15.77
2022-11-28T19:04:58.831Z,15.02
2022-11-28T19:07:27.761Z,15.55
2022-11-28T19:09:57.253Z,15.70
2022-11-28T19:12:25.348Z,18.83
2022-11-28T19:14:58.759Z,19.08
2022-11-28T19:17:30.360Z,20.20
2022-11-28T19:19:58.455Z,20.00
2022-11-28T19:22:26.644Z,18.50
2022-11-28T19:24:54.721Z,20.05
2022-11-28T19:27:24.214Z,18.00
2022-11-28T19:29:54.268Z,19.27
2022-11-28T19:32:22.473Z,19.67
2022-11-28T19:34:52.254Z,18.30
2022-11-28T19:37:20.461Z,17.25
2022-11-28T19:39:48.558Z,16.05
2022-11-28T19:42:16.871Z,21.58
2022-11-28T19:44:46.543Z,31.58
2022-11-28T19:47:15.037Z,28.73
2022-11-28T19:49:44.341Z,23.20
2022-11-28T19:52:12.661Z,29.75
2022-11-28T19:54:40.758Z,23.92
2022-11-28T19:57:11.241Z,18.90
2022-11-28T19:59:39.517Z,20.25
2022-11-28T20:02:10.424Z,20.60
2022-11-28T20:04:40.300Z,20.60
2022-11-28T20:07:08.614Z,18.50
2022-11-28T20:09:37.307Z,18.30
2022-11-28T20:12:06.041Z,19.35
2022-11-28T20:14:35.188Z,18.75
2022-11-28T20:17:05.103Z,22.67
2022-11-28T20:19:35.902Z,39.08
2022-11-28T20:22:04.781Z,21.60
2022-11-28T20:24:34.172Z,20.70
2022-11-28T20:27:02.430Z,20.77
2022-11-28T20:29:30.970Z,19.70
2022-11-28T20:31:59.192Z,18.45
2022-11-28T20:34:28.680Z,18.60
2022-11-28T20:36:59.223Z,17.02
2022-11-28T20:39:27.708Z,17.95
2022-11-28T20:41:55.723Z,18.27
2022-11-28T20:44:23.935Z,16.58
2022-11-28T20:46:52.276Z,17.17
2022-11-28T20:49:20.563Z,19.77
2022-11-28T20:51:50.207Z,17.70
2022-11-28T20:54:19.996Z,18.42
2022-11-28T20:59:36.031Z,16.75
2022-11-28T21:02:04.307Z,17.13
2022-11-28T21:04:32.870Z,17.45
2022-11-28T21:07:00.988Z,16.25
2022-11-28T21:09:30.391Z,16.83
2022-11-28T21:11:59.533Z,16.65
2022-11-28T21:14:29.045Z,15.27
2022-11-28T21:16:57.994Z,16.08
2022-11-28T21:19:26.301Z,16.20
2022-11-28T21:21:54.338Z,15.70
2022-11-28T21:24:22.358Z,16.40
2022-11-28T21:26:54.359Z,16.15
2022-11-28T21:29:24.835Z,16.52
2022-11-28T21:31:53.937Z,17.42
2022-11-28T21:34:22.641Z,17.90
2022-11-28T21:36:50.759Z,19.02
2022-11-28T21:39:20.828Z,20.77
2022-11-28T21:41:50.783Z,19.05
2022-11-28T21:44:20.676Z,21.02
2022-11-28T21:46:50.233Z,19.80
2022-11-28T21:49:18.498Z,21.25
2022-11-28T21:51:46.545Z,20.45
2022-11-28T21:54:14.627Z,20.55
2022-11-28T21:56:44.612Z,20.23
2022-11-28T21:59:12.719Z,18.75
2022-11-28T22:01:42.821Z,19.65
2022-11-28T22:04:11.149Z,21.92
2022-11-28T22:06:40.484Z,22.90
2022-11-28T22:09:09.825Z,24.58
2022-11-28T22:11:40.188Z,23.88
2022-11-28T22:14:08.416Z,23.95
2022-11-28T22:16:36.762Z,21.13
2022-11-28T22:19:06.850Z,25.33
2022-11-28T22:21:54.227Z,23.17
2022-11-28T22:24:23.735Z,23.70
2022-11-28T22:26:51.901Z,27.20
2022-11-28T22:29:20.146Z,25.33
2022-11-28T22:31:49.854Z,25.65
2022-11-28T22:34:20.496Z,24.48
2022-11-28T22:36:49.068Z,28.83
2022-11-28T22:39:17.324Z,29.63
2022-11-28T22:41:45.335Z,25.95
2022-11-28T22:44:14.149Z,26.80
2022-11-28T22:46:42.212Z,26.95
2022-11-28T22:49:12.052Z,26.63
2022-11-28T22:51:42.373Z,28.27
2022-11-28T22:54:13.245Z,27.02
2022-11-28T22:56:42.190Z,24.77
2022-11-28T22:59:15.308Z,23.90
2022-11-28T23:01:44.214Z,26.35
2022-11-28T23:04:12.726Z,25.17
2022-11-28T23:06:42.159Z,28.80
2022-11-28T23:09:12.869Z,24.33
2022-11-28T23:11:41.612Z,26.55
2022-11-28T23:14:13.880Z,27.55
2022-11-28T23:16:43.747Z,24.23
2022-11-28T23:19:14.166Z,25.70
2022-11-28T23:21:45.481Z,26.95
2022-11-28T23:24:15.224Z,24.27
2022-11-28T23:26:45.362Z,25.02
2022-11-28T23:29:15.395Z,25.60
2022-11-28T23:31:44.595Z,26.00
2022-11-28T23:34:12.949Z,23.27
2022-11-28T23:36:43.872Z,25.38
2022-11-28T23:39:13.866Z,25.75
2022-11-28T23:41:42.177Z,23.77
2022-11-28T23:44:11.806Z,25.42
2022-11-28T23:46:40.419Z,23.42
2022-11-28T23:49:09.161Z,22.42
2022-11-28T23:51:37.956Z,23.88
2022-11-28T23:54:07.503Z,21.25
2022-11-28T23:56:39.727Z,20.75
2022-11-28T23:59:10.209Z,20.75
